createdAt,value
2022-07-28T00:01:00.109Z,19.77
2022-07-28T00:03:28.063Z,17.98
2022-07-28T00:05:55.778Z,21.75
2022-07-28T00:08:24.712Z,21.52
2022-07-28T00:10:53.391Z,18.70
2022-07-28T00:13:23.533Z,21.05
2022-07-28T00:15:55.885Z,20.35
2022-07-28T00:18:23.622Z,22.05
2022-07-28T00:20:51.324Z,23.42
2022-07-28T00:23:21.716Z,20.63
2022-07-28T00:25:49.426Z,27.23
2022-07-28T00:28:17.092Z,27.88
2022-07-28T00:30:44.785Z,27.73
2022-07-28T00:33:12.489Z,32.10
2022-07-28T00:35:40.175Z,29.55
2022-07-28T00:38:18.593Z,27.20
2022-07-28T00:41:05.081Z,27.02
2022-07-28T00:43:33.620Z,26.83
2022-07-28T00:46:02.976Z,25.70
2022-07-28T00:48:31.034Z,27.05
2022-07-28T00:50:58.676Z,25.80
2022-07-28T00:53:26.777Z,30.30
2022-07-28T00:56:05.919Z,25.50
2022-07-28T00:58:35.507Z,29.80
2022-07-28T01:01:07.454Z,28.60
2022-07-28T01:03:42.256Z,29.45
2022-07-28T01:06:32.710Z,31.33
2022-07-28T01:09:13.195Z,32.10
2022-07-28T01:11:45.198Z,30.00
2022-07-28T01:14:24.156Z,22.50
2022-07-28T01:17:11.368Z,26.42
2022-07-28T01:19:49.291Z,28.85
2022-07-28T01:22:20.504Z,25.70
2022-07-28T01:28:25.382Z,25.40
2022-07-28T01:31:00.739Z,23.52
2022-07-28T01:33:35.409Z,23.75
2022-07-28T01:36:09.913Z,23.05
2022-07-28T01:38:37.723Z,21.98
2022-07-28T01:41:09.326Z,28.05
2022-07-28T01:43:38.397Z,31.38
2022-07-28T01:46:06.194Z,36.53
2022-07-28T01:48:34.283Z,29.55
2022-07-28T01:51:09.209Z,22.98
2022-07-28T01:53:37.837Z,25.83
2022-07-28T01:56:05.968Z,30.88
2022-07-28T01:58:34.066Z,33.35
2022-07-28T02:01:01.765Z,30.40
2022-07-28T02:03:29.889Z,27.35
2022-07-28T02:05:57.606Z,23.15
2022-07-28T02:08:25.541Z,27.27
2022-07-28T02:11:12.158Z,28.50
2022-07-28T02:13:40.563Z,27.80
2022-07-28T02:16:09.184Z,25.45
2022-07-28T02:18:37.059Z,30.38
2022-07-28T02:21:05.324Z,27.23
2022-07-28T02:23:33.869Z,30.33
2022-07-28T02:26:01.940Z,31.83
2022-07-28T02:28:35.033Z,33.40
2022-07-28T02:31:05.646Z,29.27
2022-07-28T02:33:58.975Z,35.20
2022-07-28T02:36:29.749Z,31.02
2022-07-28T02:39:06.674Z,36.47
2022-07-28T02:41:38.609Z,37.47
2022-07-28T02:44:16.288Z,34.78
2022-07-28T02:46:49.304Z,35.78
2022-07-28T02:49:21.590Z,33.10
2022-07-28T02:51:49.645Z,37.20
2022-07-28T02:54:17.870Z,31.58
2022-07-28T02:56:53.278Z,31.67
2022-07-28T02:59:21.944Z,28.75
2022-07-28T03:01:49.912Z,30.58
2022-07-28T03:04:42.457Z,27.20
2022-07-28T03:07:10.980Z,30.52
2022-07-28T03:09:45.895Z,26.42
2022-07-28T03:12:14.647Z,26.38
2022-07-28T03:14:43.336Z,28.85
2022-07-28T03:17:11.773Z,26.77
2022-07-28T03:19:40.166Z,26.35
2022-07-28T03:22:10.359Z,31.45
2022-07-28T03:24:39.585Z,28.23
2022-07-28T03:27:13.701Z,26.80
2022-07-28T03:29:41.994Z,29.98
2022-07-28T03:32:10.051Z,30.45
2022-07-28T03:34:38.292Z,28.83
2022-07-28T03:37:12.179Z,32.13
2022-07-28T03:39:45.419Z,35.40
2022-07-28T03:42:13.294Z,33.35
2022-07-28T03:44:41.061Z,32.67
2022-07-28T03:47:12.259Z,27.48
2022-07-28T03:49:40.209Z,31.80
2022-07-28T03:52:07.971Z,35.40
2022-07-28T03:54:37.341Z,33.55
2022-07-28T03:57:05.075Z,27.50
2022-07-28T03:59:33.074Z,33.30
2022-07-28T04:02:01.767Z,31.52
2022-07-28T04:04:29.661Z,27.25
2022-07-28T04:06:57.452Z,27.00
2022-07-28T04:09:25.171Z,31.33
2022-07-28T04:11:52.881Z,29.75
2022-07-28T04:14:22.168Z,31.58
2022-07-28T04:16:50.138Z,26.23
2022-07-28T04:19:18.318Z,30.77
2022-07-28T04:21:46.399Z,29.45
2022-07-28T04:24:16.775Z,27.05
2022-07-28T04:26:44.870Z,28.33
2022-07-28T04:29:13.001Z,27.15
2022-07-28T04:31:40.699Z,27.05
2022-07-28T04:34:08.474Z,27.02
2022-07-28T04:36:42.333Z,24.23
2022-07-28T04:39:11.669Z,21.45
2022-07-28T04:41:41.686Z,22.17
2022-07-28T04:44:12.295Z,18.92
2022-07-28T04:46:40.438Z,19.48
2022-07-28T04:49:09.612Z,21.13
2022-07-28T04:51:38.194Z,20.52
2022-07-28T04:54:05.932Z,17.60
2022-07-28T04:56:34.089Z,16.83
2022-07-28T04:59:02.670Z,18.10
2022-07-28T05:01:32.495Z,16.70
2022-07-28T05:04:00.495Z,17.50
2022-07-28T05:06:28.355Z,18.80
2022-07-28T05:08:56.331Z,17.77
2022-07-28T05:11:25.268Z,19.08
2022-07-28T05:13:53.579Z,17.23
2022-07-28T05:16:21.363Z,23.67
2022-07-28T05:18:49.562Z,23.05
2022-07-28T05:21:17.242Z,17.35
2022-07-28T05:23:50.671Z,15.75
2022-07-28T05:26:18.417Z,18.58
2022-07-28T05:28:46.179Z,13.05
2022-07-28T05:31:14.612Z,9.40
2022-07-28T05:33:42.433Z,11.90
2022-07-28T05:36:11.505Z,8.50
2022-07-28T05:38:39.310Z,11.73
2022-07-28T05:41:06.969Z,12.77
2022-07-28T05:43:38.111Z,10.40
2022-07-28T05:46:05.832Z,7.57
2022-07-28T05:48:34.070Z,9.35
2022-07-28T05:51:02.636Z,8.88
2022-07-28T05:53:30.580Z,12.70
2022-07-28T05:56:00.364Z,9.68
2022-07-28T05:58:31.069Z,9.57
2022-07-28T06:01:00.378Z,10.43
2022-07-28T06:03:32.154Z,6.93
2022-07-28T06:06:15.713Z,8.75
2022-07-28T06:08:47.802Z,7.97
2022-07-28T06:11:21.954Z,8.95
2022-07-28T06:13:52.192Z,11.48
2022-07-28T06:16:24.534Z,9.43
2022-07-28T06:18:52.711Z,10.00
2022-07-28T06:21:24.809Z,9.18
2022-07-28T06:23:53.106Z,12.32
2022-07-28T06:26:23.535Z,9.73
2022-07-28T06:28:52.178Z,16.52
2022-07-28T06:31:22.804Z,9.82
2022-07-28T06:33:51.114Z,13.02
2022-07-28T06:36:18.779Z,8.82
2022-07-28T06:38:46.479Z,11.10
2022-07-28T06:41:14.131Z,31.55
2022-07-28T06:43:41.922Z,14.80
2022-07-28T06:46:09.899Z,13.18
2022-07-28T06:48:39.654Z,10.45
2022-07-28T06:51:07.524Z,11.90
2022-07-28T06:53:35.388Z,9.45
2022-07-28T06:56:05.503Z,9.80
2022-07-28T06:58:33.787Z,8.48
2022-07-28T07:01:02.846Z,12.85
2022-07-28T07:03:32.090Z,8.93
2022-07-28T07:05:59.818Z,7.97
2022-07-28T07:08:27.605Z,8.93
2022-07-28T07:10:55.385Z,7.32
2022-07-28T07:13:23.197Z,7.85
2022-07-28T07:15:52.862Z,7.78
2022-07-28T07:18:20.660Z,6.85
2022-07-28T07:20:49.299Z,7.90
2022-07-28T07:23:17.147Z,8.98
2022-07-28T07:25:45.233Z,7.57
2022-07-28T07:28:12.976Z,6.38
2022-07-28T07:30:41.620Z,6.78
2022-07-28T07:33:09.684Z,9.43
2022-07-28T07:35:38.692Z,8.20
2022-07-28T07:38:06.569Z,7.15
2022-07-28T07:40:35.390Z,8.35
2022-07-28T07:43:03.203Z,9.25
2022-07-28T07:45:31.054Z,10.80
2022-07-28T07:48:02.319Z,7.05
2022-07-28T07:50:31.441Z,7.25
2022-07-28T07:52:59.163Z,9.82
2022-07-28T07:55:28.242Z,8.95
2022-07-28T07:58:04.180Z,6.18
2022-07-28T08:00:32.014Z,6.45
2022-07-28T08:03:00.618Z,6.63
2022-07-28T08:05:35.584Z,6.43
2022-07-28T08:08:05.297Z,8.18
2022-07-28T08:10:35.644Z,6.03
2022-07-28T08:13:04.410Z,8.75
2022-07-28T08:15:32.577Z,7.20
2022-07-28T08:18:02.943Z,6.03
2022-07-28T08:20:30.557Z,5.68
2022-07-28T08:22:58.956Z,5.57
2022-07-28T08:25:27.432Z,5.40
2022-07-28T08:27:55.741Z,5.28
2022-07-28T08:30:26.330Z,4.93
2022-07-28T08:32:57.865Z,6.57
2022-07-28T08:35:35.171Z,5.30
2022-07-28T08:38:04.816Z,7.82
2022-07-28T08:40:32.953Z,5.78
2022-07-28T08:43:09.074Z,5.35
2022-07-28T08:45:37.258Z,6.47
2022-07-28T08:48:08.603Z,6.75
2022-07-28T08:50:38.612Z,10.77
2022-07-28T08:53:06.927Z,6.35
2022-07-28T08:55:38.477Z,5.53
2022-07-28T08:58:06.212Z,8.23
2022-07-28T09:00:34.391Z,5.50
2022-07-28T09:03:03.476Z,5.70
2022-07-28T09:05:32.296Z,5.30
2022-07-28T09:08:01.683Z,6.10
2022-07-28T09:10:29.605Z,7.88
2022-07-28T09:13:17.389Z,7.72
2022-07-28T09:15:48.922Z,5.75
2022-07-28T09:18:17.722Z,5.78
2022-07-28T09:23:41.960Z,7.43
2022-07-28T09:26:11.363Z,7.22
2022-07-28T09:28:57.079Z,6.35
2022-07-28T09:31:26.758Z,6.00
2022-07-28T09:34:02.179Z,5.45
2022-07-28T09:36:39.549Z,6.32
2022-07-28T09:39:07.481Z,7.57
2022-07-28T09:41:55.394Z,6.63
2022-07-28T09:44:23.634Z,6.07
2022-07-28T09:46:51.493Z,5.82
2022-07-28T09:49:21.074Z,5.63
2022-07-28T09:52:04.267Z,8.73
2022-07-28T09:54:31.934Z,7.10
2022-07-28T09:57:00.845Z,5.25
2022-07-28T09:59:45.460Z,11.05
2022-07-28T10:02:28.079Z,10.13
2022-07-28T10:05:00.311Z,5.80
2022-07-28T10:07:31.434Z,7.23
2022-07-28T10:10:08.846Z,5.32
2022-07-28T10:12:38.793Z,5.95
2022-07-28T10:15:36.268Z,6.18
2022-07-28T10:18:05.080Z,5.70
2022-07-28T10:20:34.171Z,5.30
2022-07-28T10:23:03.728Z,7.43
2022-07-28T10:25:33.234Z,6.88
2022-07-28T10:28:01.494Z,5.95
2022-07-28T10:30:34.638Z,5.40
2022-07-28T10:33:03.478Z,6.80
2022-07-28T10:35:31.117Z,9.57
2022-07-28T10:38:00.964Z,8.32
2022-07-28T10:40:32.295Z,6.72
2022-07-28T10:43:00.469Z,7.30
2022-07-28T10:45:48.006Z,6.82
2022-07-28T10:48:16.001Z,7.88
2022-07-28T10:50:43.961Z,8.13
2022-07-28T10:53:12.207Z,10.95
2022-07-28T10:55:42.913Z,10.88
2022-07-28T10:58:35.253Z,6.88
2022-07-28T11:01:06.226Z,7.85
2022-07-28T11:03:34.382Z,8.60
2022-07-28T11:06:29.703Z,7.25
2022-07-28T11:08:58.930Z,12.00
2022-07-28T11:11:46.178Z,6.78
2022-07-28T11:14:24.447Z,9.35
2022-07-28T11:17:24.307Z,6.65
2022-07-28T11:22:52.019Z,6.38
2022-07-28T11:25:22.316Z,6.45
2022-07-28T11:27:51.022Z,7.38
2022-07-28T11:30:19.542Z,6.97
2022-07-28T11:32:56.450Z,7.00
2022-07-28T11:35:27.551Z,6.85
2022-07-28T11:38:01.685Z,7.43
2022-07-28T11:40:33.407Z,7.85
2022-07-28T11:43:35.743Z,12.45
2022-07-28T11:46:09.388Z,9.20
2022-07-28T11:48:45.327Z,9.93
2022-07-28T11:51:13.492Z,10.98
2022-07-28T11:53:53.681Z,12.55
2022-07-28T11:56:36.277Z,12.27
2022-07-28T11:59:07.431Z,11.18
2022-07-28T12:01:38.877Z,11.20
2022-07-28T12:04:12.011Z,13.38
2022-07-28T12:06:49.399Z,12.50
2022-07-28T12:09:25.237Z,14.65
2022-07-28T12:11:56.027Z,15.18
2022-07-28T12:14:24.273Z,15.23
2022-07-28T12:16:52.376Z,13.20
2022-07-28T12:19:32.923Z,13.85
2022-07-28T12:22:00.901Z,19.05
2022-07-28T12:24:30.070Z,21.65
2022-07-28T12:26:58.565Z,21.17
2022-07-28T12:29:35.767Z,19.25
2022-07-28T12:32:05.529Z,26.90
2022-07-28T12:34:35.234Z,15.82
2022-07-28T12:37:04.841Z,11.47
2022-07-28T12:39:37.010Z,9.40
2022-07-28T12:42:05.712Z,8.95
2022-07-28T12:44:43.550Z,21.08
2022-07-28T12:47:13.307Z,31.50
2022-07-28T12:49:42.483Z,23.52
2022-07-28T12:52:24.822Z,17.80
2022-07-28T12:54:55.677Z,18.17
2022-07-28T12:57:49.192Z,13.77
2022-07-28T13:00:32.063Z,15.68
2022-07-28T13:03:01.224Z,19.48
2022-07-28T13:05:54.597Z,16.45
2022-07-28T13:08:23.878Z,14.05
2022-07-28T13:10:59.157Z,10.70
2022-07-28T13:13:27.049Z,14.55
2022-07-28T13:16:21.264Z,14.75
2022-07-28T13:18:54.351Z,13.35
2022-07-28T13:21:58.195Z,10.35
2022-07-28T13:24:28.120Z,10.38
2022-07-28T13:26:56.131Z,6.82
2022-07-28T13:29:23.979Z,6.05
2022-07-28T13:31:52.414Z,12.50
2022-07-28T13:34:20.238Z,14.65
2022-07-28T13:36:48.139Z,13.30
2022-07-28T13:39:16.037Z,7.68
2022-07-28T13:41:56.642Z,8.80
2022-07-28T13:44:28.682Z,12.23
2022-07-28T13:46:58.890Z,16.57
2022-07-28T13:49:28.764Z,19.02
2022-07-28T13:51:58.093Z,23.15
2022-07-28T13:54:30.126Z,20.13
2022-07-28T13:57:00.174Z,24.25
2022-07-28T13:59:30.691Z,18.95
2022-07-28T14:02:06.356Z,13.85
2022-07-28T14:04:45.964Z,10.77
2022-07-28T14:07:25.228Z,10.05
2022-07-28T14:09:57.329Z,11.43
2022-07-28T14:12:33.580Z,16.42
2022-07-28T14:15:07.825Z,12.82
2022-07-28T14:17:43.254Z,17.23
2022-07-28T14:20:18.280Z,35.78
2022-07-28T14:22:51.103Z,24.13
2022-07-28T14:25:25.749Z,20.98
2022-07-28T14:27:57.706Z,44.42
2022-07-28T14:30:30.136Z,36.25
2022-07-28T14:33:01.366Z,30.35
2022-07-28T14:35:32.315Z,29.42
2022-07-28T14:40:53.082Z,17.40
2022-07-28T14:43:22.794Z,20.63
2022-07-28T14:46:12.234Z,24.20
2022-07-28T14:48:43.302Z,21.30
2022-07-28T14:51:14.425Z,16.80
2022-07-28T14:53:51.764Z,19.60
2022-07-28T14:56:26.755Z,13.05
2022-07-28T14:58:55.906Z,10.35
2022-07-28T15:01:25.550Z,6.78
2022-07-28T15:03:53.501Z,8.00
2022-07-28T15:06:22.503Z,7.82
2022-07-28T15:08:51.178Z,7.35
2022-07-28T15:11:21.492Z,11.45
2022-07-28T15:13:57.105Z,8.88
2022-07-28T15:16:32.756Z,11.50
2022-07-28T15:19:03.338Z,6.27
2022-07-28T15:21:37.685Z,10.30
2022-07-28T15:24:11.604Z,5.50
2022-07-28T15:26:40.541Z,9.82
2022-07-28T15:29:08.483Z,8.15
2022-07-28T15:34:11.098Z,6.78
2022-07-28T15:36:46.249Z,7.82
2022-07-28T15:39:17.529Z,6.25
2022-07-28T15:41:48.098Z,8.13
2022-07-28T15:44:22.369Z,8.93
2022-07-28T15:46:57.367Z,6.75
2022-07-28T15:49:27.831Z,6.65
2022-07-28T15:51:57.818Z,8.95
2022-07-28T15:54:26.002Z,7.38
2022-07-28T15:56:54.236Z,10.70
2022-07-28T15:59:24.404Z,11.18
2022-07-28T16:01:54.263Z,10.07
2022-07-28T16:04:22.157Z,12.48
2022-07-28T16:07:10.611Z,10.57
2022-07-28T16:09:45.864Z,8.30
2022-07-28T16:12:14.816Z,8.30
2022-07-28T16:14:44.572Z,12.15
2022-07-28T16:17:12.920Z,9.35
2022-07-28T16:19:49.833Z,7.25
2022-07-28T16:22:19.365Z,7.47
2022-07-28T16:24:47.578Z,6.47
2022-07-28T16:27:15.966Z,6.40
2022-07-28T16:29:45.205Z,6.75
2022-07-28T16:32:13.883Z,8.55
2022-07-28T16:34:45.017Z,5.75
2022-07-28T16:37:17.507Z,7.00
2022-07-28T16:39:48.281Z,7.43
2022-07-28T16:42:17.443Z,4.68
2022-07-28T16:44:45.711Z,4.40
2022-07-28T16:47:14.464Z,6.75
2022-07-28T16:49:46.221Z,5.60
2022-07-28T16:52:15.825Z,11.88
2022-07-28T16:54:44.092Z,6.38
2022-07-28T16:57:13.688Z,6.13
2022-07-28T16:59:48.288Z,4.38
2022-07-28T17:02:18.566Z,6.53
2022-07-28T17:04:47.305Z,6.72
2022-07-28T17:07:17.425Z,6.65
2022-07-28T17:09:45.235Z,4.85
2022-07-28T17:12:15.057Z,9.73
2022-07-28T17:14:43.607Z,7.85
2022-07-28T17:17:16.159Z,5.32
2022-07-28T17:19:47.861Z,12.48
2022-07-28T17:22:16.057Z,12.20
2022-07-28T17:24:43.886Z,12.63
2022-07-28T17:30:00.102Z,34.80
2022-07-28T17:32:28.168Z,15.98
2022-07-28T17:34:55.971Z,22.55
2022-07-28T17:37:29.828Z,20.90
2022-07-28T17:39:59.352Z,21.20
2022-07-28T17:42:27.133Z,10.85
2022-07-28T17:44:56.870Z,16.20
2022-07-28T17:47:35.637Z,22.25
2022-07-28T17:50:07.214Z,16.42
2022-07-28T17:52:35.041Z,11.98
2022-07-28T17:55:24.005Z,13.23
2022-07-28T17:57:53.752Z,15.40
2022-07-28T18:00:22.130Z,20.08
2022-07-28T18:02:50.098Z,18.55
2022-07-28T18:05:20.478Z,10.25
2022-07-28T18:07:51.024Z,10.45
2022-07-28T18:10:24.664Z,15.07
2022-07-28T18:12:53.741Z,14.40
2022-07-28T18:15:21.960Z,9.68
2022-07-28T18:17:54.920Z,9.52
2022-07-28T18:20:29.805Z,11.68
2022-07-28T18:22:57.864Z,13.88
2022-07-28T18:25:26.175Z,10.10
2022-07-28T18:27:58.569Z,14.23
2022-07-28T18:30:26.526Z,20.17
2022-07-28T18:32:54.711Z,12.63
2022-07-28T18:35:22.733Z,17.00
2022-07-28T18:37:51.956Z,9.13
2022-07-28T18:40:21.669Z,9.30
2022-07-28T18:42:50.447Z,14.15
2022-07-28T18:45:18.794Z,8.65
2022-07-28T18:47:47.893Z,17.52
2022-07-28T18:50:30.210Z,12.73
2022-07-28T18:52:59.558Z,6.95
2022-07-28T18:55:27.426Z,11.45
2022-07-28T18:57:55.790Z,8.63
2022-07-28T19:00:23.605Z,11.65
2022-07-28T19:02:53.379Z,8.10
2022-07-28T19:05:21.234Z,7.45
2022-07-28T19:07:48.870Z,10.10
2022-07-28T19:10:18.124Z,8.52
2022-07-28T19:12:46.703Z,7.75
2022-07-28T19:15:15.235Z,10.00
2022-07-28T19:17:44.763Z,11.48
2022-07-28T19:20:12.457Z,12.30
2022-07-28T19:22:44.655Z,12.75
2022-07-28T19:25:12.335Z,13.25
2022-07-28T19:27:40.150Z,14.57
2022-07-28T19:30:08.938Z,10.10
2022-07-28T19:32:41.863Z,11.82
2022-07-28T19:35:10.473Z,13.23
2022-07-28T19:37:39.506Z,8.63
2022-07-28T19:40:07.879Z,12.07
2022-07-28T19:42:35.529Z,13.32
2022-07-28T19:45:08.650Z,12.38
2022-07-28T19:47:37.384Z,15.55
2022-07-28T19:50:05.602Z,12.60
2022-07-28T19:52:34.933Z,13.73
2022-07-28T19:55:06.159Z,17.70
2022-07-28T19:57:34.686Z,13.48
2022-07-28T20:00:02.501Z,14.15
2022-07-28T20:02:39.569Z,13.75
2022-07-28T20:05:08.418Z,11.23
2022-07-28T20:07:36.461Z,13.23
2022-07-28T20:10:05.265Z,16.52
2022-07-28T20:12:36.680Z,13.93
2022-07-28T20:15:06.111Z,15.63
2022-07-28T20:17:41.179Z,15.35
2022-07-28T20:20:09.845Z,14.48
2022-07-28T20:22:41.287Z,14.38
2022-07-28T20:25:10.026Z,14.57
2022-07-28T20:27:40.243Z,20.58
2022-07-28T20:30:12.587Z,15.30
2022-07-28T20:32:42.277Z,16.25
2022-07-28T20:35:11.071Z,14.77
2022-07-28T20:37:40.759Z,12.48
2022-07-28T20:40:09.159Z,15.00
2022-07-28T20:42:37.252Z,17.00
2022-07-28T20:45:05.606Z,12.70
2022-07-28T20:47:33.979Z,15.38
2022-07-28T20:50:01.798Z,13.50
2022-07-28T20:52:30.993Z,17.33
2022-07-28T20:54:58.799Z,17.25
2022-07-28T20:57:26.582Z,14.85
2022-07-28T20:59:54.317Z,15.52
2022-07-28T21:02:23.146Z,13.65
2022-07-28T21:04:51.903Z,18.80
2022-07-28T21:08:00.504Z,15.18
2022-07-28T21:10:11.087Z,12.63
2022-07-28T21:12:39.541Z,15.13
2022-07-28T21:15:07.898Z,13.52
2022-07-28T21:17:36.057Z,13.43
2022-07-28T21:20:04.963Z,16.05
2022-07-28T21:22:32.737Z,15.70
2022-07-28T21:25:00.645Z,11.30
2022-07-28T21:27:48.207Z,9.48
2022-07-28T21:30:16.646Z,10.65
2022-07-28T21:32:44.387Z,10.88
2022-07-28T21:35:14.300Z,13.55
2022-07-28T21:37:42.820Z,10.35
2022-07-28T21:40:14.113Z,11.98
2022-07-28T21:42:42.468Z,12.20
2022-07-28T21:45:12.120Z,7.68
2022-07-28T21:47:40.706Z,9.52
2022-07-28T21:50:10.926Z,10.80
2022-07-28T21:52:39.557Z,8.95
2022-07-28T21:55:08.107Z,10.05
2022-07-28T21:57:36.365Z,10.18
2022-07-28T22:00:07.444Z,10.63
2022-07-28T22:02:38.380Z,7.43
2022-07-28T22:05:09.263Z,6.95
2022-07-28T22:07:37.486Z,10.98
2022-07-28T22:10:05.786Z,28.13
2022-07-28T22:12:33.566Z,7.72
2022-07-28T22:15:01.161Z,6.65
2022-07-28T22:17:28.935Z,6.43
2022-07-28T22:19:57.098Z,12.40
2022-07-28T22:22:24.947Z,6.22
2022-07-28T22:24:52.551Z,11.13
2022-07-28T22:27:20.320Z,6.05
2022-07-28T22:29:52.211Z,7.63
2022-07-28T22:32:28.777Z,5.10
2022-07-28T22:34:58.178Z,6.93
2022-07-28T22:37:25.866Z,5.25
2022-07-28T22:39:53.864Z,6.57
2022-07-28T22:42:21.554Z,7.93
2022-07-28T22:44:49.123Z,6.30
2022-07-28T22:47:17.024Z,7.97
2022-07-28T22:49:45.485Z,5.47
2022-07-28T22:52:13.165Z,4.78
2022-07-28T22:54:40.887Z,4.97
2022-07-28T22:57:08.547Z,4.00
2022-07-28T22:59:39.841Z,11.27
2022-07-28T23:02:09.638Z,5.32
2022-07-28T23:04:40.242Z,3.90
2022-07-28T23:07:14.982Z,6.93
2022-07-28T23:09:43.103Z,3.78
2022-07-28T23:12:11.545Z,5.82
2022-07-28T23:14:39.406Z,4.55
2022-07-28T23:17:07.213Z,6.13
2022-07-28T23:19:35.156Z,5.47
2022-07-28T23:22:05.999Z,4.50
2022-07-28T23:24:34.271Z,5.95
2022-07-28T23:27:01.905Z,5.28
2022-07-28T23:29:29.652Z,6.90
2022-07-28T23:32:00.032Z,8.05
2022-07-28T23:34:28.393Z,7.35
2022-07-28T23:36:56.318Z,6.43
2022-07-28T23:39:24.812Z,7.47
2022-07-28T23:41:52.646Z,5.18
2022-07-28T23:44:20.332Z,5.13
2022-07-28T23:46:48.388Z,4.22
2022-07-28T23:49:17.040Z,5.07
2022-07-28T23:51:47.403Z,7.30
2022-07-28T23:54:17.983Z,4.47
2022-07-28T23:56:46.685Z,5.05
2022-07-28T23:59:14.921Z,5.05
